Historyczne dane pomiarowe

Dodano dane terminowe – wersja testowa.

Dane z okresu 1951-2019

Wersja bazy: 1.34 [2019-03-16, lista zmian], aktualizacja planowana na 2019-04-15

Dane meteo z obszaru Polski uzyskane na podstawie danych udostępnionych przez Instytut Meteorologii i Gospodarki Wodnej – Państwowy Instytut Badawczy.

 

Wybierz Datę:    

       

TemperaturaWilgotnośćWiatrCiśnienieOpadyŚniegCzas trwania zjawisk
 Stacja t tx tn tng RH VA  wxwx mslp ppp RRR   cm mm wxwxwxwxwxwxwx
1999-08-14 14.0 19.9 6.6- 74.5- 3.7 1.7---- 0.0------------
1999-08-13 14.7 21.4 5.9- 78.0- 2.3 0.3---- 0.0------------
1999-08-12 16.7 20.9 13.7- 84.0- 6.3 1.3---- 0.0------------
1999-08-11 20.4 24.8 16.9- 80.5- 5.0 1.3---- 6.8------------
1999-08-10 20.8 29.6 12.2- 79.0- 4.3 0.7---- 3.8------------
1999-08-09 23.4 31.2 14.8- 71.5- 3.7 1.3---- 2.1------------
1999-08-08 21.4 26.7 14.8- 77.3- 4.7 1.3---- 0.0------------
1999-08-07 19.4 28.2 11.6- 81.0- 5.3 0.7---- 0.0------------
1999-08-06 17.8 23.3 12.7- 86.5- 7.3 0.3---- 1.0------------
1999-08-05 17.4 25.7 7.9- 76.8- 5.0 0.7---- 0.0------------
1999-08-04 18.0 23.8 11.3- 77.5- 3.7 0.7---- 0.0------------
1999-08-03 16.8 21.4 11.1- 82.5- 7.3 0.0---- 0.3------------
1999-08-02 16.2 20.9 12.7- 87.0- 6.3 0.0---- 1.6------------
1999-08-01 18.0 23.8 11.6- 67.8- 4.7 1.0---- 0.5------------
1999-07-31 18.0 25.3 7.9- 56.5- 4.7 2.0---- 0.0------------
1999-07-30 17.6 23.8 7.9- 59.8- 2.3 1.0---- 0.0------------
1999-07-29 16.8 23.3 8.6- 69.5- 2.7 1.0---- 0.0------------
1999-07-28 17.3 21.2 13.3- 92.8- 5.3 0.7---- 31.2------------
1999-07-27 19.4 23.3 14.8- 89.0- 6.3 1.0---- 0.0------------
1999-07-26 21.4 28.7 12.5- 77.8- 6.0 0.3---- 29.7------------
1999-07-25 18.3 25.3 9.1- 76.3- 2.7 0.3---- 0.0------------
1999-07-24 17.9 22.3 12.2- 75.5- 4.7 0.7---- 0.0------------
1999-07-23 16.6 20.1 14.2- 87.5- 8.0 1.3---- 9.7------------
1999-07-22 20.7 25.7 15.3- 72.8- 8.0 1.3---- 1.4------------
1999-07-21 22.2 29.6 12.4- 63.0- 3.7 0.3---- 0.0------------
1999-07-20 21.0 29.1 10.1- 77.3- 5.0 0.7---- 0.0------------
1999-07-19 18.4 28.2 8.1- 71.5- 3.3 1.3---- 0.0------------
1999-07-18 17.0 24.8 6.1- 75.8- 3.7 0.0---- 1.2------------
1999-07-17 16.2 23.8 6.1- 75.3- 2.7 0.3---- 0.0------------
1999-07-16 15.8 22.3 6.6- 72.0- 4.0 0.7---- 4.2------------
1999-07-15 17.1 21.8 13.2- 86.8- 6.0 1.0---- 2.8------------
1999-07-14 20.5 25.3 15.8- 78.0- 6.0 0.7---- 10.6------------
1999-07-13 20.8 25.7 15.1- 69.5- 3.7 2.0---- 0.3------------
1999-07-12 22.4 28.2 15.8- 58.3- 5.0 2.0---- 0.0------------
1999-07-11 21.5 26.7 15.3- 58.0- 5.0 1.0---- 0.0------------
1999-07-10 20.6 24.8 15.8- 70.3- 5.0 2.3---- 0.0------------
1999-07-09 20.5 25.7 13.7- 93.3- 6.0 0.3---- 0.0------------
1999-07-08 19.8 27.7 14.5- 87.0- 8.0 0.7---- 83.7------------
1999-07-07 23.7 28.7 18.9- 73.0- 4.7 2.0---- 0.1------------
1999-07-06 25.0 31.7 16.9- 63.5- 1.0 0.7---- 0.0------------
1999-07-05 24.2 31.7 14.5- 67.0- 1.0 1.3---- 0.0------------
1999-07-04 21.9 29.1 12.2- 73.8- 1.0 1.0---- 0.0------------
1999-07-03 19.2 25.7 9.6- 81.8- 4.3 0.3---- 0.0------------
1999-07-02 19.6 25.7 12.2- 83.8- 2.7 0.7---- 0.0------------
1999-07-01 18.5 25.7 8.1- 80.0- 4.7 0.7---- 0.0------------
1999-06-30 19.6 25.3 9.1- 81.0- 3.3 0.7---- 0.0------------
1999-06-29 20.3 26.2 13.2- 82.5- 1.0 0.3---- 0.0------------
1999-06-28 21.0 28.7 10.1- 84.8- 1.0 0.3---- 0.0------------
1999-06-27 19.6 26.2 9.1- 70.3- 1.0 1.7---- 0.0------------
1999-06-26 15.7 22.8 4.2- 77.8- 1.0 0.0---- 0.0------------
1999-06-25 14.1 19.4 9.1- 85.3- 4.7 0.7---- 0.0------------
1999-06-24 11.0 12.2 9.6- 95.0- 8.0 1.0---- 13.8------------
1999-06-23 10.8 14.5 8.1- 97.5- 8.0 1.3---- 8.7------------
1999-06-22 17.0 24.1 12.2- 92.8- 8.0 2.0---- 17.5------------
1999-06-21 19.2 24.8 11.3- 84.0- 3.3 0.7---- 2.9------------
1999-06-20 19.1 24.3 13.3- 85.8- 4.3 0.3---- 0.0------------
1999-06-19 19.5 25.7 13.2- 87.8- 5.7 0.7---- 0.0------------
1999-06-18 20.0 25.3 16.1- 84.5- 4.7 1.3---- 8.4------------
1999-06-17 20.8 25.3 16.3- 84.8- 6.7 0.7---- 0.0------------
1999-06-16 19.8 24.8 15.5- 91.3- 7.0 1.0---- 5.0------------
401.9 ms

 

Źródłem pochodzenia danych jest Instytut Meteorologii i Gospodarki Wodnej – Państwowy Instytut Badawczy. Dane Instytutu Meteorologii i Gospodarki Wodnej – Państwowego Instytutu Badawczego zostały przetworzone.

Dane źródłowe można odnaleźć na stronie https://dane.imgw.pl